Time;durP1;ratioP1;P1;durP2;ratioP2;P2;SDS_P1;SDS_P2;PMS_P1;PMS_P2;Temp;Humidity;BMP_temperature;BMP_pressure;BME280_temperature;BME280_humidity;BME280_pressure;Samples;Min_cycle;Max_cycle;Signal;HPM_P1;HPM_P2
2021/08/21 00:00:04;;;;;;;6.25;3.55;;;26.00;96.70;;;;;;4779482;29;20576;-83
2021/08/21 00:02:37;;;;;;;6.10;3.25;;;26.00;96.70;;;;;;4782584;29;20098;-86
2021/08/21 00:05:08;;;;;;;4.70;3.35;;;25.90;96.70;;;;;;4754402;30;20288;-86
2021/08/21 00:07:37;;;;;;;5.32;3.60;;;25.90;96.70;;;;;;4759894;30;20051;-84
2021/08/21 00:10:07;;;;;;;6.70;3.17;;;25.90;96.70;;;;;;4750606;30;20578;-82
2021/08/21 00:12:36;;;;;;;4.53;3.40;;;25.80;96.70;;;;;;4756944;30;20174;-82
2021/08/21 00:15:07;;;;;;;7.78;3.80;;;25.80;96.70;;;;;;4748614;30;20414;-82
2021/08/21 00:17:36;;;;;;;3.67;3.17;;;25.80;96.70;;;;;;4757655;30;20043;-84
2021/08/21 00:20:06;;;;;;;5.60;3.60;;;25.90;96.70;;;;;;4750999;29;20044;-84
2021/08/21 00:22:35;;;;;;;6.05;3.60;;;25.90;96.70;;;;;;4747058;30;20055;-84
2021/08/21 00:25:04;;;;;;;6.05;3.47;;;25.90;96.70;;;;;;4757696;30;20087;-83
2021/08/21 00:27:33;;;;;;;4.82;3.60;;;25.90;96.70;;;;;;4753732;30;20044;-83
2021/08/21 00:30:01;;;;;;;6.93;4.03;;;25.80;96.70;;;;;;4747731;30;20059;-83
2021/08/21 00:32:30;;;;;;;6.30;3.40;;;25.70;96.70;;;;;;4764130;30;20051;-82
2021/08/21 00:34:59;;;;;;;5.88;3.33;;;25.70;96.70;;;;;;4772227;29;20059;-83
2021/08/21 00:37:27;;;;;;;5.10;3.67;;;25.70;96.70;;;;;;4775522;30;20043;-83
2021/08/21 00:39:57;;;;;;;5.43;3.45;;;25.70;96.70;;;;;;4744585;30;20150;-83
2021/08/21 00:42:26;;;;;;;6.35;3.95;;;25.60;96.70;;;;;;4759347;30;20054;-84
2021/08/21 00:44:54;;;;;;;8.80;3.50;;;25.60;96.70;;;;;;4758961;30;20419;-83
2021/08/21 00:47:22;;;;;;;6.38;3.80;;;25.60;96.70;;;;;;4757779;30;20062;-84
2021/08/21 00:49:52;;;;;;;6.90;3.55;;;25.50;96.70;;;;;;4759772;30;20044;-82
2021/08/21 00:52:22;;;;;;;7.10;3.47;;;25.60;96.70;;;;;;4748753;30;20055;-81
2021/08/21 00:54:51;;;;;;;4.20;3.45;;;25.60;96.70;;;;;;4766581;29;20058;-81
2021/08/21 00:57:21;;;;;;;6.30;3.40;;;25.70;96.70;;;;;;4748556;30;20056;-82
2021/08/21 00:59:51;;;;;;;5.38;3.58;;;25.60;96.70;;;;;;4755680;30;20066;-82
2021/08/21 01:02:21;;;;;;;4.82;3.00;;;25.60;96.70;;;;;;4759039;30;20084;-82
2021/08/21 01:04:51;;;;;;;7.35;3.58;;;25.60;96.70;;;;;;4757772;30;20059;-82
2021/08/21 01:07:25;;;;;;;5.38;3.55;;;25.60;96.70;;;;;;4755129;30;20091;-81
2021/08/21 01:10:00;;;;;;;4.78;3.13;;;25.60;96.70;;;;;;4761636;30;20148;-81
2021/08/21 01:12:34;;;;;;;5.13;3.08;;;25.60;96.70;;;;;;4763814;30;20648;-82
2021/08/21 01:15:05;;;;;;;4.32;3.35;;;25.60;96.70;;;;;;4760725;30;20059;-82
2021/08/21 01:17:34;;;;;;;5.97;3.80;;;25.60;96.70;;;;;;4771663;29;20089;-81
2021/08/21 01:20:05;;;;;;;4.40;3.30;;;25.50;96.70;;;;;;4763599;29;20042;-82
2021/08/21 01:22:36;;;;;;;4.88;3.65;;;25.40;96.70;;;;;;4771996;29;20051;-82
2021/08/21 01:25:26;;;;;;;4.93;3.50;;;25.10;96.70;;;;;;4758691;29;20043;-82
2021/08/21 01:27:59;;;;;;;4.82;3.33;;;24.90;96.70;;;;;;4756638;30;20539;-82
2021/08/21 01:31:09;;;;;;;4.38;3.40;;;24.90;96.70;;;;;;4738703;30;20178;-83
2021/08/21 01:33:43;;;;;;;4.88;3.17;;;25.10;96.70;;;;;;4732779;30;20063;-83
2021/08/21 01:36:12;;;;;;;4.88;3.70;;;25.20;96.70;;;;;;4755091;29;20063;-83
2021/08/21 01:39:01;;;;;;;6.40;3.83;;;25.00;96.70;;;;;;4777487;29;20507;-82
2021/08/21 01:41:43;;;;;;;5.93;3.63;;;24.90;96.70;;;;;;4757402;30;20054;-80
2021/08/21 01:44:17;;;;;;;6.63;3.92;;;24.90;96.70;;;;;;4766940;30;20573;-80
2021/08/21 01:46:48;;;;;;;5.57;3.35;;;24.90;96.70;;;;;;4769736;29;20067;-81
2021/08/21 01:49:18;;;;;;;7.35;3.90;;;24.80;96.70;;;;;;4771659;29;20054;-80
2021/08/21 01:51:50;;;;;;;5.05;3.30;;;24.70;96.70;;;;;;4740362;29;20059;-79
2021/08/21 01:54:24;;;;;;;5.18;3.38;;;24.60;96.70;;;;;;4742817;30;20058;-78
2021/08/21 01:56:55;;;;;;;4.43;3.70;;;24.80;96.70;;;;;;4744131;30;20166;-79
2021/08/21 01:59:44;;;;;;;4.68;3.20;;;24.70;96.70;;;;;;4772642;29;20058;-80
2021/08/21 02:02:22;;;;;;;4.25;3.22;;;24.80;96.70;;;;;;4761815;29;20146;-78
2021/08/21 02:05:04;;;;;;;5.35;3.42;;;24.80;96.70;;;;;;4765375;29;20147;-79
2021/08/21 02:07:32;;;;;;;4.57;3.55;;;24.60;96.70;;;;;;4781812;29;20482;-79
2021/08/21 02:10:03;;;;;;;4.05;3.00;;;24.70;96.70;;;;;;4754792;30;20063;-80
2021/08/21 02:12:35;;;;;;;5.90;3.67;;;24.70;96.70;;;;;;4763701;30;20054;-79
2021/08/21 02:15:08;;;;;;;7.88;3.50;;;24.60;96.70;;;;;;4762445;30;20146;-80
2021/08/21 02:17:36;;;;;;;4.72;3.47;;;24.80;96.70;;;;;;4775895;29;20104;-79
2021/08/21 02:20:43;;;;;;;6.53;3.70;;;24.80;96.70;;;;;;4732447;30;20512;-78
2021/08/21 02:23:19;;;;;;;6.05;4.00;;;24.60;96.70;;;;;;4734563;30;20048;-82
2021/08/21 02:25:55;;;;;;;4.65;3.85;;;24.70;96.70;;;;;;4742974;30;20060;-80
2021/08/21 02:28:38;;;;;;;6.55;3.22;;;24.60;96.70;;;;;;4722320;30;20065;-78
2021/08/21 02:31:13;;;;;;;11.05;4.50;;;24.60;96.70;;;;;;4742040;30;20056;-79
2021/08/21 02:33:41;;;;;;;7.32;4.22;;;24.70;96.70;;;;;;4743326;30;20697;-79
2021/08/21 02:36:10;;;;;;;6.75;3.50;;;24.70;96.70;;;;;;4725504;30;20106;-78
2021/08/21 02:38:39;;;;;;;4.45;3.67;;;24.70;96.70;;;;;;4733126;30;20567;-79
2021/08/21 02:41:11;;;;;;;5.55;3.70;;;24.60;96.70;;;;;;4725325;30;20116;-78
2021/08/21 02:43:42;;;;;;;6.18;3.80;;;24.60;96.70;;;;;;4694242;30;20871;-79
2021/08/21 02:46:15;;;;;;;7.93;4.05;;;24.50;96.70;;;;;;4725755;30;20064;-79
2021/08/21 02:48:55;;;;;;;5.68;4.00;;;24.40;96.70;;;;;;4724002;30;20088;-78
2021/08/21 02:51:39;;;;;;;6.60;3.95;;;24.40;96.70;;;;;;4741718;29;20078;-78
2021/08/21 02:54:26;;;;;;;5.65;3.90;;;24.20;96.70;;;;;;4771777;29;20050;-77
2021/08/21 02:57:01;;;;;;;6.35;3.78;;;24.10;96.70;;;;;;4778613;29;20122;-78
2021/08/21 02:59:30;;;;;;;6.63;4.05;;;24.30;96.70;;;;;;4778695;29;20095;-78
2021/08/21 03:05:53;;;;;;;4.80;4.10;;;24.30;96.70;;;;;;4760359;30;20130;-78
2021/08/21 03:08:25;;;;;;;5.70;4.28;;;24.40;96.70;;;;;;4755622;30;20104;-78
2021/08/21 03:10:56;;;;;;;5.53;4.30;;;24.40;96.70;;;;;;4757165;30;20153;-78
2021/08/21 03:13:27;;;;;;;7.97;4.40;;;24.30;96.70;;;;;;4739377;30;20100;-78
2021/08/21 03:15:55;;;;;;;6.18;4.13;;;24.30;96.70;;;;;;4757364;30;20055;-77
2021/08/21 03:18:23;;;;;;;7.13;4.32;;;24.30;96.70;;;;;;4771332;29;20047;-78
2021/08/21 03:20:56;;;;;;;5.68;4.07;;;24.40;96.70;;;;;;4742331;30;20044;-78
2021/08/21 03:23:24;;;;;;;9.98;4.65;;;24.30;96.70;;;;;;4772545;29;20067;-78
2021/08/21 03:25:53;;;;;;;5.63;3.92;;;24.20;96.70;;;;;;4776370;30;20564;-78
2021/08/21 03:28:22;;;;;;;6.38;4.35;;;24.30;96.70;;;;;;4740200;29;20154;-78
2021/08/21 03:30:51;;;;;;;5.63;3.95;;;24.20;96.70;;;;;;4763638;30;20051;-78
2021/08/21 03:33:23;;;;;;;6.18;4.13;;;24.10;96.70;;;;;;4746809;30;21435;-79
2021/08/21 03:35:51;;;;;;;5.07;4.25;;;24.00;96.70;;;;;;4762728;29;20162;-79
2021/08/21 03:38:21;;;;;;;7.78;4.10;;;24.00;96.70;;;;;;4763579;30;20494;-79
2021/08/21 03:40:58;;;;;;;6.72;4.70;;;24.00;96.70;;;;;;4758657;30;20044;-78
2021/08/21 03:43:27;;;;;;;6.38;4.40;;;24.00;96.70;;;;;;4756922;30;20590;-78
2021/08/21 03:45:55;;;;;;;7.03;5.05;;;24.10;96.70;;;;;;4747622;30;20059;-79
2021/08/21 03:48:24;;;;;;;8.73;4.40;;;24.00;96.70;;;;;;4761853;30;20105;-79
2021/08/21 03:50:53;;;;;;;6.93;4.28;;;24.00;96.70;;;;;;4773192;29;20134;-78
2021/08/21 03:54:14;;;;;;;5.25;4.20;;;24.00;96.70;;;;;;4754644;30;21036;-78
2021/08/21 03:56:43;;;;;;;6.68;3.83;;;24.10;96.70;;;;;;4761417;30;20565;-80
2021/08/21 03:59:12;;;;;;;6.43;3.90;;;24.10;96.70;;;;;;4772580;29;20411;-80
2021/08/21 04:01:49;;;;;;;4.65;3.70;;;24.00;96.70;;;;;;4752430;30;20051;-78
2021/08/21 04:04:27;;;;;;;4.60;3.40;;;23.90;96.70;;;;;;4752840;30;20055;-78
2021/08/21 04:06:58;;;;;;;6.13;3.70;;;23.80;96.70;;;;;;4760542;29;20051;-78
2021/08/21 04:09:33;;;;;;;5.65;3.80;;;23.90;96.70;;;;;;4751478;29;20071;-78
2021/08/21 04:12:04;;;;;;;7.35;3.50;;;23.90;96.70;;;;;;4755244;29;20121;-79
2021/08/21 04:14:39;;;;;;;5.15;3.70;;;23.80;96.70;;;;;;4741888;29;20494;-76
2021/08/21 04:17:09;;;;;;;5.50;3.53;;;23.80;96.70;;;;;;4757772;30;20142;-77
2021/08/21 04:19:37;;;;;;;7.78;3.97;;;23.70;96.70;;;;;;4733355;30;20062;-77
2021/08/21 04:22:07;;;;;;;5.95;3.90;;;23.70;96.70;;;;;;4757240;30;20058;-78
2021/08/21 04:24:50;;;;;;;5.47;3.70;;;23.70;96.70;;;;;;4756478;30;20043;-77
2021/08/21 04:27:20;;;;;;;6.43;3.65;;;23.70;96.70;;;;;;4741391;30;20056;-77
2021/08/21 04:29:50;;;;;;;7.63;4.10;;;23.70;96.70;;;;;;4754452;30;20054;-77
2021/08/21 04:32:19;;;;;;;6.30;4.10;;;23.70;96.70;;;;;;4738820;30;20109;-77
2021/08/21 04:34:47;;;;;;;7.53;4.57;;;23.50;96.70;;;;;;4757689;30;20113;-77
2021/08/21 04:37:16;;;;;;;6.43;4.07;;;23.40;96.70;;;;;;4768370;29;20046;-77
2021/08/21 04:39:45;;;;;;;7.18;4.47;;;23.30;96.70;;;;;;4751724;30;20521;-77
2021/08/21 04:42:20;;;;;;;6.55;4.35;;;23.20;96.70;;;;;;4759372;30;20058;-77
2021/08/21 04:44:50;;;;;;;5.80;4.35;;;23.20;96.70;;;;;;4752143;30;20047;-77
2021/08/21 04:47:19;;;;;;;6.38;4.18;;;23.20;96.70;;;;;;4755450;30;20051;-77
2021/08/21 04:49:48;;;;;;;9.05;4.28;;;23.30;96.70;;;;;;4752857;29;20569;-77
2021/08/21 04:52:16;;;;;;;5.90;4.50;;;23.40;96.70;;;;;;4750587;29;20142;-78
2021/08/21 04:54:44;;;;;;;5.32;4.18;;;23.40;96.70;;;;;;4746327;30;20055;-78
2021/08/21 04:57:15;;;;;;;6.32;4.18;;;23.40;96.70;;;;;;4755856;30;20063;-78
2021/08/21 04:59:48;;;;;;;8.05;4.20;;;23.40;96.70;;;;;;4755177;30;20085;-78
2021/08/21 05:02:16;;;;;;;4.88;3.85;;;23.50;96.70;;;;;;4759427;29;20062;-76
2021/08/21 05:04:45;;;;;;;4.65;3.72;;;23.60;96.70;;;;;;4777647;29;20054;-78
2021/08/21 05:07:13;;;;;;;6.60;3.97;;;23.80;96.70;;;;;;4774461;29;20396;-79
2021/08/21 05:09:45;;;;;;;5.47;4.25;;;23.90;96.70;;;;;;4775120;29;20122;-79
2021/08/21 05:12:19;;;;;;;7.68;4.57;;;23.90;96.70;;;;;;4772673;29;20078;-79
2021/08/21 05:14:58;;;;;;;6.68;4.53;;;23.70;96.70;;;;;;4780545;29;20506;-79
2021/08/21 05:17:26;;;;;;;7.82;4.80;;;23.60;96.70;;;;;;4772472;29;20055;-77
2021/08/21 05:20:15;;;;;;;5.90;3.97;;;23.50;96.70;;;;;;4766501;29;20560;-77
2021/08/21 05:23:05;;;;;;;7.00;4.80;;;23.50;96.70;;;;;;4776968;29;20059;-78
2021/08/21 05:25:39;;;;;;;9.50;4.80;;;23.60;96.70;;;;;;4773909;29;20169;-77
2021/08/21 05:28:08;;;;;;;7.20;4.72;;;23.60;96.70;;;;;;4763901;29;20425;-77
2021/08/21 05:30:39;;;;;;;5.65;4.30;;;23.50;96.70;;;;;;4775666;29;20071;-77
2021/08/21 05:33:11;;;;;;;6.15;4.43;;;23.40;96.70;;;;;;4790530;29;20039;-78
2021/08/21 05:35:40;;;;;;;5.65;4.18;;;23.30;96.70;;;;;;4775771;29;20046;-78
2021/08/21 05:38:09;;;;;;;5.53;4.80;;;23.30;96.70;;;;;;4775520;29;20039;-78
2021/08/21 05:40:38;;;;;;;7.93;4.50;;;23.40;96.70;;;;;;4776861;29;20790;-78
2021/08/21 05:43:10;;;;;;;6.68;4.68;;;23.40;96.70;;;;;;4777201;29;20468;-78
2021/08/21 05:45:40;;;;;;;8.38;4.70;;;23.40;96.70;;;;;;4790609;29;20545;-78
2021/08/21 05:48:08;;;;;;;7.25;5.20;;;23.50;96.70;;;;;;4794500;29;20050;-78
2021/08/21 05:50:36;;;;;;;7.93;5.03;;;23.60;96.70;;;;;;4760592;30;20055;-78
2021/08/21 05:53:04;;;;;;;8.30;5.30;;;23.80;96.70;;;;;;4782851;29;20057;-80
2021/08/21 05:55:34;;;;;;;8.95;5.40;;;24.00;96.70;;;;;;4788471;29;20609;-81
2021/08/21 05:58:14;;;;;;;7.45;5.47;;;24.20;96.70;;;;;;4775104;29;20431;-81
2021/08/21 06:00:50;;;;;;;10.52;5.63;;;24.20;96.70;;;;;;4795271;29;20154;-82
2021/08/21 06:03:19;;;;;;;9.35;6.97;;;24.10;96.70;;;;;;4791076;29;20055;-81
2021/08/21 06:05:47;;;;;;;9.55;6.30;;;24.00;96.70;;;;;;4770080;29;20133;-81
2021/08/21 06:08:17;;;;;;;8.15;6.50;;;24.10;96.70;;;;;;4770810;29;20100;-87
2021/08/21 06:10:51;;;;;;;10.00;7.53;;;24.10;96.70;;;;;;4780411;29;20129;-81
2021/08/21 06:13:20;;;;;;;9.35;7.88;;;24.00;96.70;;;;;;4774056;29;20051;-81
2021/08/21 06:15:50;;;;;;;11.50;7.57;;;24.00;96.70;;;;;;4781710;29;20059;-79
2021/08/21 06:18:18;;;;;;;9.55;7.25;;;24.00;96.70;;;;;;4786698;29;20139;-76
2021/08/21 06:20:47;;;;;;;11.68;7.57;;;24.10;96.70;;;;;;4793370;29;20058;-77
2021/08/21 06:23:15;;;;;;;11.02;7.15;;;24.00;96.70;;;;;;4788709;29;20051;-82
2021/08/21 06:25:43;;;;;;;9.38;6.90;;;24.00;96.70;;;;;;4778142;29;20058;-80
2021/08/21 06:28:11;;;;;;;9.45;6.85;;;24.30;96.70;;;;;;4770512;29;20159;-81
2021/08/21 06:30:40;;;;;;;7.43;5.95;;;24.30;96.70;;;;;;4775325;29;20046;-81
2021/08/21 06:33:10;;;;;;;8.75;6.35;;;24.30;96.70;;;;;;4785588;29;20418;-83
2021/08/21 06:35:38;;;;;;;9.77;7.45;;;24.30;96.70;;;;;;4770486;29;20464;-80
2021/08/21 06:38:06;;;;;;;8.52;6.65;;;24.30;96.70;;;;;;4766981;29;20073;-82
2021/08/21 06:40:34;;;;;;;8.02;5.53;;;24.40;96.70;;;;;;4789626;29;20062;-82
2021/08/21 06:43:03;;;;;;;9.70;6.38;;;24.50;96.70;;;;;;4775410;29;20063;-82
2021/08/21 06:45:53;;;;;;;9.60;6.25;;;24.50;96.70;;;;;;4778219;29;20051;-82
2021/08/21 06:48:23;;;;;;;10.63;6.13;;;24.50;96.70;;;;;;4779824;29;20069;-82
2021/08/21 06:50:51;;;;;;;6.95;5.70;;;24.60;96.70;;;;;;4783175;29;20103;-83
2021/08/21 06:53:19;;;;;;;8.23;5.45;;;24.40;96.70;;;;;;4759110;29;20048;-81
2021/08/21 06:55:48;;;;;;;9.30;6.85;;;24.30;96.70;;;;;;4774453;29;20055;-83
2021/08/21 06:58:19;;;;;;;11.32;5.80;;;24.30;96.70;;;;;;4782795;29;20162;-81
2021/08/21 07:00:47;;;;;;;8.38;5.68;;;24.40;96.70;;;;;;4773754;29;20050;-82
2021/08/21 07:03:16;;;;;;;9.57;6.18;;;24.40;96.70;;;;;;4775443;29;20067;-84
2021/08/21 07:05:45;;;;;;;7.53;6.20;;;24.60;96.70;;;;;;4789247;29;20640;-83
2021/08/21 07:08:13;;;;;;;7.43;5.70;;;24.70;96.70;;;;;;4775449;29;20457;-84
2021/08/21 07:10:42;;;;;;;8.50;5.60;;;24.80;96.70;;;;;;4776669;29;20050;-83
2021/08/21 07:13:10;;;;;;;10.57;6.57;;;24.90;96.70;;;;;;4789324;29;20414;-83
2021/08/21 07:15:38;;;;;;;11.07;7.45;;;24.90;96.70;;;;;;4763495;29;20050;-81
2021/08/21 07:18:07;;;;;;;9.10;7.00;;;24.70;96.70;;;;;;4774401;29;20418;-82
2021/08/21 07:20:35;;;;;;;7.57;5.80;;;24.50;96.70;;;;;;4760229;29;20043;-83
2021/08/21 07:23:05;;;;;;;7.68;5.85;;;24.60;96.70;;;;;;4777494;29;20422;-82
2021/08/21 07:25:33;;;;;;;6.85;6.15;;;24.80;96.70;;;;;;4791602;29;20725;-83
2021/08/21 07:28:01;;;;;;;9.40;6.03;;;24.90;96.70;;;;;;4776223;29;20066;-82
2021/08/21 07:30:30;;;;;;;6.78;5.40;;;24.90;96.70;;;;;;4769651;29;20274;-82
2021/08/21 07:32:58;;;;;;;9.98;5.78;;;24.90;96.70;;;;;;4769181;29;20058;-82
2021/08/21 07:35:26;;;;;;;14.65;10.18;;;25.10;96.70;;;;;;4772808;29;20051;-82
2021/08/21 07:37:55;;;;;;;16.85;13.52;;;25.20;96.70;;;;;;4780089;29;20043;-81
2021/08/21 07:40:25;;;;;;;14.95;9.77;;;25.20;96.70;;;;;;4776360;29;20073;-80
2021/08/21 07:42:53;;;;;;;11.07;7.63;;;25.30;96.70;;;;;;4771039;29;20092;-81
2021/08/21 07:45:22;;;;;;;8.68;6.03;;;25.40;96.70;;;;;;4766233;29;20129;-80
2021/08/21 07:47:51;;;;;;;10.32;6.25;;;25.60;96.70;;;;;;4758711;29;20046;-79
2021/08/21 07:50:20;;;;;;;8.27;5.82;;;25.60;96.70;;;;;;4792954;29;20060;-81
2021/08/21 07:52:49;;;;;;;9.38;6.03;;;25.60;96.70;;;;;;4775042;29;20055;-80
2021/08/21 07:55:17;;;;;;;7.90;5.68;;;25.60;96.70;;;;;;4778592;29;20046;-79
2021/08/21 07:57:47;;;;;;;7.85;5.55;;;25.50;96.70;;;;;;4779296;29;20148;-81
2021/08/21 08:00:16;;;;;;;6.93;5.07;;;25.50;96.70;;;;;;4779804;29;20051;-83
2021/08/21 08:02:45;;;;;;;6.30;5.18;;;25.40;96.70;;;;;;4775242;29;20062;-84
2021/08/21 08:05:14;;;;;;;8.45;6.10;;;25.60;96.70;;;;;;4774238;29;20506;-84
2021/08/21 08:07:42;;;;;;;6.38;5.05;;;25.60;96.70;;;;;;4775682;29;20059;-84
2021/08/21 08:10:10;;;;;;;9.68;5.40;;;25.70;96.70;;;;;;4759598;30;20082;-86
2021/08/21 08:12:39;;;;;;;8.80;5.50;;;25.80;96.70;;;;;;4778147;29;20067;-86
2021/08/21 08:15:10;;;;;;;7.53;4.75;;;25.80;96.70;;;;;;4776101;29;20510;-85
2021/08/21 08:17:38;;;;;;;6.70;4.70;;;25.80;96.70;;;;;;4789074;29;20104;-85
2021/08/21 08:20:08;;;;;;;9.00;5.22;;;26.00;96.70;;;;;;4776826;29;20059;-84
2021/08/21 08:22:36;;;;;;;8.90;5.20;;;26.10;96.70;;;;;;4775884;29;20067;-83
2021/08/21 08:25:05;;;;;;;6.82;5.35;;;26.20;96.70;;;;;;4767442;29;20050;-84
2021/08/21 08:27:34;;;;;;;10.63;4.97;;;26.20;96.70;;;;;;4774366;29;20507;-83
2021/08/21 08:30:04;;;;;;;6.47;4.65;;;26.30;96.70;;;;;;4784798;29;20077;-87
2021/08/21 08:32:34;;;;;;;8.23;4.80;;;26.40;96.70;;;;;;4771874;30;20053;-87
2021/08/21 08:35:03;;;;;;;10.15;4.93;;;26.50;96.70;;;;;;4779966;29;20110;-88
2021/08/21 08:37:31;;;;;;;6.25;4.45;;;26.50;96.70;;;;;;4793293;29;20129;-88
2021/08/21 08:40:00;;;;;;;7.53;4.68;;;26.70;96.70;;;;;;4774472;29;20049;-87
2021/08/21 08:42:28;;;;;;;7.10;4.45;;;26.80;96.70;;;;;;4791242;29;20051;-88
2021/08/21 08:44:57;;;;;;;8.05;4.93;;;26.90;96.70;;;;;;4774768;29;20062;-88
2021/08/21 08:47:26;;;;;;;7.50;4.47;;;26.90;96.70;;;;;;4773162;29;20055;-87
2021/08/21 08:50:03;;;;;;;6.85;4.40;;;26.90;96.70;;;;;;4786213;29;20046;-86
2021/08/21 08:52:33;;;;;;;7.10;4.10;;;27.00;96.70;;;;;;4756968;30;20051;-87
2021/08/21 08:55:01;;;;;;;5.68;4.40;;;27.00;96.70;;;;;;4772365;29;20103;-86
2021/08/21 08:57:34;;;;;;;6.60;3.95;;;27.00;96.70;;;;;;4785761;29;20050;-85
2021/08/21 09:00:06;;;;;;;6.88;3.83;;;27.10;96.70;;;;;;4775643;29;20038;-87
2021/08/21 09:02:37;;;;;;;8.82;4.47;;;27.20;96.70;;;;;;4770447;29;20710;-88
2021/08/21 09:05:12;;;;;;;7.15;4.85;;;27.30;96.70;;;;;;4772035;29;20051;-88
2021/08/21 09:07:43;;;;;;;7.47;4.43;;;27.50;96.70;;;;;;4788888;29;20057;-87
2021/08/21 09:10:14;;;;;;;7.63;4.65;;;27.50;96.70;;;;;;4767618;29;20503;-86
2021/08/21 09:12:43;;;;;;;7.55;4.75;;;27.60;96.70;;;;;;4772586;29;20051;-87
2021/08/21 09:15:25;;;;;;;7.00;4.43;;;27.70;96.70;;;;;;4777505;29;20050;-86
2021/08/21 09:18:02;;;;;;;9.32;4.80;;;27.80;96.70;;;;;;4768901;29;20514;-87
2021/08/21 09:20:33;;;;;;;6.43;4.68;;;27.90;96.70;;;;;;4762326;29;20329;-86
2021/08/21 09:23:18;;;;;;;7.28;4.40;;;28.00;96.70;;;;;;4769807;29;20216;-89
2021/08/21 09:25:48;;;;;;;8.52;4.50;;;28.10;96.70;;;;;;4780525;29;20138;-88
2021/08/21 09:28:19;;;;;;;9.15;5.15;;;28.20;96.70;;;;;;4776134;29;20051;-87
2021/08/21 09:30:48;;;;;;;6.15;4.32;;;28.30;96.70;;;;;;4765737;29;20490;-92
2021/08/21 09:33:18;;;;;;;6.85;4.25;;;28.30;96.70;;;;;;4776240;29;20499;-85
2021/08/21 09:35:51;;;;;;;5.15;4.40;;;28.40;96.70;;;;;;4779174;29;20414;-83
2021/08/21 09:38:22;;;;;;;6.85;4.43;;;28.50;96.70;;;;;;4765283;29;20051;-81
2021/08/21 09:41:00;;;;;;;6.35;4.50;;;28.50;96.70;;;;;;4768392;29;20082;-84
2021/08/21 09:43:31;;;;;;;8.40;4.80;;;28.60;96.70;;;;;;4755488;29;20051;-83
2021/08/21 09:46:12;;;;;;;6.82;4.32;;;28.60;96.70;;;;;;4769814;30;20055;-82
2021/08/21 09:48:58;;;;;;;8.35;4.78;;;28.60;96.70;;;;;;4776949;29;20423;-80
2021/08/21 09:51:47;;;;;;;6.22;4.90;;;28.80;96.70;;;;;;4763167;29;20050;-81
2021/08/21 09:54:17;;;;;;;6.90;4.22;;;28.80;96.70;;;;;;4786522;29;20506;-81
2021/08/21 09:56:51;;;;;;;4.80;4.30;;;28.90;96.70;;;;;;4797905;29;20149;-81
2021/08/21 09:59:33;;;;;;;5.18;4.43;;;29.10;96.70;;;;;;4792847;29;20043;-81
2021/08/21 10:02:04;;;;;;;8.35;4.82;;;29.20;96.70;;;;;;4777470;29;20062;-81
2021/08/21 10:04:34;;;;;;;7.45;4.70;;;29.30;96.70;;;;;;4792316;29;20075;-82
2021/08/21 10:07:05;;;;;;;5.90;4.55;;;29.40;96.70;;;;;;4788602;29;20047;-80
2021/08/21 10:09:35;;;;;;;5.30;4.28;;;29.50;96.70;;;;;;4788370;29;20051;-82
2021/08/21 10:12:05;;;;;;;6.72;3.65;;;29.60;96.10;;;;;;4771774;29;20206;-82
2021/08/21 10:14:34;;;;;;;6.05;3.70;;;29.70;94.40;;;;;;4774666;29;20145;-83
2021/08/21 10:17:03;;;;;;;4.43;3.47;;;29.70;94.10;;;;;;4774323;29;20560;-84
2021/08/21 10:19:33;;;;;;;6.15;3.13;;;29.90;93.80;;;;;;4789914;29;20532;-83
2021/08/21 10:22:04;;;;;;;4.00;3.20;;;30.10;92.30;;;;;;4774498;29;20582;-83
2021/08/21 10:24:36;;;;;;;4.93;3.42;;;30.20;91.90;;;;;;4794091;29;20142;-82
2021/08/21 10:27:09;;;;;;;4.68;3.45;;;30.30;92.40;;;;;;4777635;29;20043;-83
2021/08/21 10:29:38;;;;;;;3.90;3.13;;;30.30;92.30;;;;;;4774820;29;20054;-84
2021/08/21 10:32:31;;;;;;;6.80;3.45;;;30.40;91.00;;;;;;4776126;29;20130;-84
2021/08/21 10:35:01;;;;;;;5.40;3.42;;;30.50;90.70;;;;;;4789943;29;20125;-82
2021/08/21 10:37:33;;;;;;;3.88;3.25;;;30.60;90.90;;;;;;4783196;29;20142;-81
2021/08/21 10:40:31;;;;;;;5.90;3.70;;;30.90;90.80;;;;;;4773099;29;20043;-84
2021/08/21 10:43:00;;;;;;;5.60;3.65;;;31.00;91.10;;;;;;4767577;29;20161;-84
2021/08/21 10:45:46;;;;;;;4.53;3.65;;;31.20;91.80;;;;;;4788171;29;20046;-84
2021/08/21 10:48:52;;;;;;;5.30;3.63;;;31.20;89.70;;;;;;4767796;29;20542;-80
2021/08/21 10:51:38;;;;;;;3.75;3.20;;;31.20;88.60;;;;;;4795521;29;20039;-82
2021/08/21 10:54:45;;;;;;;3.50;2.90;;;31.20;88.20;;;;;;4775076;29;20046;-84
2021/08/21 10:57:26;;;;;;;;;;;31.30;87.60;;;;;;4785877;29;20047;-84
2021/08/21 10:59:55;;;;;;;4.55;3.40;;;31.50;86.90;;;;;;4791853;29;19929;-84
2021/08/21 11:02:44;;;;;;;4.90;3.65;;;31.50;87.50;;;;;;4777994;29;20058;-84
2021/08/21 11:05:52;;;;;;;5.95;3.08;;;31.50;87.20;;;;;;4784965;29;20557;-82
2021/08/21 11:08:22;;;;;;;5.75;3.40;;;31.60;86.30;;;;;;4778149;29;20141;-83
2021/08/21 11:11:25;;;;;;;5.55;3.20;;;31.80;85.40;;;;;;4793209;29;20243;-84
2021/08/21 11:14:04;;;;;;;3.13;2.80;;;32.00;84.30;;;;;;4772070;29;20445;-82
2021/08/21 11:16:50;;;;;;;4.68;2.97;;;32.00;83.30;;;;;;4783069;29;20055;-80
2021/08/21 11:19:33;;;;;;;3.92;3.15;;;32.00;83.90;;;;;;4765512;29;20049;-80
2021/08/21 11:22:27;;;;;;;3.97;3.33;;;31.90;84.30;;;;;;4773436;29;20155;-80
2021/08/21 11:25:10;;;;;;;3.50;3.00;;;32.10;83.20;;;;;;4775335;29;20051;-80
2021/08/21 11:27:43;;;;;;;4.47;2.58;;;32.10;83.00;;;;;;4786080;29;20054;-80
2021/08/21 11:30:20;;;;;;;4.72;2.50;;;32.30;83.10;;;;;;4788893;29;20059;-80
2021/08/21 11:32:51;;;;;;;3.45;2.90;;;32.40;79.50;;;;;;4772472;29;20066;-83
2021/08/21 11:35:22;;;;;;;2.42;2.20;;;32.40;79.60;;;;;;4792120;29;20123;-83
2021/08/21 11:37:53;;;;;;;3.90;2.33;;;32.60;79.40;;;;;;4764960;29;20139;-82
2021/08/21 11:40:24;;;;;;;3.47;2.47;;;32.70;77.20;;;;;;4778243;29;20105;-84
2021/08/21 11:42:55;;;;;;;4.03;2.53;;;32.70;78.80;;;;;;4774349;29;20047;-84
2021/08/21 11:45:25;;;;;;;4.40;2.72;;;32.70;79.40;;;;;;4785342;29;20048;-83
2021/08/21 11:47:54;;;;;;;3.28;2.60;;;33.00;78.80;;;;;;4774609;29;20049;-84
2021/08/21 11:50:28;;;;;;;4.22;2.85;;;33.10;78.10;;;;;;4792619;29;20047;-84
2021/08/21 11:53:00;;;;;;;3.25;2.53;;;33.20;78.80;;;;;;4770229;29;20429;-82
2021/08/21 11:55:30;;;;;;;4.13;3.00;;;33.20;79.30;;;;;;4772913;29;20055;-82
2021/08/21 11:57:59;;;;;;;4.63;3.17;;;33.20;80.00;;;;;;4773053;29;20135;-82
2021/08/21 12:00:30;;;;;;;3.78;2.55;;;33.20;80.10;;;;;;4783915;29;20047;-84
2021/08/21 12:03:01;;;;;;;6.07;3.20;;;33.20;79.80;;;;;;4713762;29;1601112;-84
2021/08/21 12:05:35;;;;;;;4.30;3.22;;;33.20;79.70;;;;;;4780265;29;20055;-84
2021/08/21 12:08:17;;;;;;;6.32;3.15;;;33.30;79.40;;;;;;4779548;29;20046;-87
2021/08/21 12:10:48;;;;;;;5.18;3.60;;;33.30;79.50;;;;;;4764632;29;20051;-86
2021/08/21 12:13:19;;;;;;;4.60;3.10;;;33.40;81.20;;;;;;4778456;29;20065;-87
2021/08/21 12:15:48;;;;;;;5.95;3.58;;;33.40;80.50;;;;;;4773360;29;20169;-87
2021/08/21 12:18:19;;;;;;;4.22;3.15;;;33.50;80.40;;;;;;4776306;30;20067;-87
2021/08/21 12:20:48;;;;;;;4.88;3.03;;;33.60;79.90;;;;;;4774771;29;20450;-87
2021/08/21 12:23:19;;;;;;;7.80;3.75;;;33.60;80.70;;;;;;4764637;29;20057;-87
2021/08/21 12:25:53;;;;;;;6.00;3.67;;;33.70;80.50;;;;;;4774504;29;20059;-85
2021/08/21 12:28:24;;;;;;;3.35;2.88;;;33.80;80.30;;;;;;4792574;29;20089;-85
2021/08/21 12:31:02;;;;;;;5.22;3.22;;;33.80;80.00;;;;;;4769743;29;20065;-85
2021/08/21 12:33:34;;;;;;;5.07;2.97;;;33.80;79.10;;;;;;4776265;29;20460;-87
2021/08/21 12:36:11;;;;;;;4.55;3.65;;;33.80;79.00;;;;;;4763792;29;20210;-86
2021/08/21 12:38:57;;;;;;;8.20;3.40;;;34.10;80.10;;;;;;4766549;29;20058;-87
2021/08/21 12:41:26;;;;;;;5.43;2.83;;;34.10;80.50;;;;;;4780513;29;20051;-86
2021/08/21 12:44:14;;;;;;;5.18;3.28;;;34.00;79.90;;;;;;4778574;29;20050;-87
2021/08/21 12:46:54;;;;;;;4.95;3.20;;;33.90;80.60;;;;;;4779278;29;20054;-88
2021/08/21 12:49:31;;;;;;;5.50;3.35;;;33.90;82.40;;;;;;4771352;29;20867;-86
2021/08/21 12:52:01;;;;;;;6.95;3.47;;;33.90;83.50;;;;;;4773864;29;20050;-89
2021/08/21 12:54:34;;;;;;;4.85;3.47;;;33.80;82.60;;;;;;4788337;29;20360;-86
2021/08/21 12:57:04;;;;;;;4.65;3.17;;;33.80;82.00;;;;;;4776748;29;20051;-85
2021/08/21 12:59:33;;;;;;;3.40;3.10;;;33.60;81.10;;;;;;4775956;29;20038;-84
2021/08/21 13:02:04;;;;;;;7.28;3.13;;;33.60;81.70;;;;;;4767471;29;21086;-83
2021/08/21 13:04:33;;;;;;;3.22;2.92;;;33.70;80.80;;;;;;4787328;29;20051;-87
2021/08/21 13:07:03;;;;;;;4.82;3.00;;;33.60;80.10;;;;;;4758814;30;20043;-88
2021/08/21 13:09:33;;;;;;;5.50;3.17;;;33.80;80.60;;;;;;4778915;29;20142;-88
2021/08/21 13:12:02;;;;;;;6.55;3.50;;;33.80;79.80;;;;;;4780022;29;20055;-92
2021/08/21 13:14:31;;;;;;;4.45;2.90;;;33.70;80.10;;;;;;4774544;29;20095;-87
2021/08/21 13:17:04;;;;;;;4.88;3.00;;;33.60;79.80;;;;;;4778172;29;20050;-86